Time;durP1;ratioP1;P1;durP2;ratioP2;P2;SDS_P1;SDS_P2;PMS_P1;PMS_P2;Temp;Humidity;BMP_temperature;BMP_pressure;BME280_temperature;BME280_humidity;BME280_pressure;Samples;Min_cycle;Max_cycle;Signal;HPM_P1;HPM_P2
2022/04/17 00:00:58;;;;;;;4.75;3.85;;;;;;;8.65;40.26;100527.00;5011210;28;20231;-82
2022/04/17 00:03:25;;;;;;;4.18;3.72;;;;;;;8.69;40.35;100527.78;4995346;28;20217;-82
2022/04/17 00:05:53;;;;;;;4.13;3.75;;;;;;;8.79;40.34;100533.69;4995673;28;20214;-81
2022/04/17 00:08:19;;;;;;;5.70;4.00;;;;;;;8.72;40.50;100519.59;4995602;28;20190;-81
2022/04/17 00:10:46;;;;;;;4.00;3.60;;;;;;;8.73;40.50;100524.06;4995265;28;20217;-82
2022/04/17 00:13:14;;;;;;;4.53;4.13;;;;;;;8.82;40.59;100522.81;4995628;28;20616;-82
2022/04/17 00:15:41;;;;;;;5.28;4.18;;;;;;;8.83;40.53;100525.47;4996642;28;20285;-83
2022/04/17 00:18:08;;;;;;;5.25;4.20;;;;;;;8.83;40.74;100521.91;4996821;28;20693;-82
2022/04/17 00:20:35;;;;;;;4.40;3.88;;;;;;;8.89;40.60;100514.50;4995817;28;20195;-82
2022/04/17 00:23:03;;;;;;;6.60;3.55;;;;;;;8.89;40.56;100519.88;4995021;28;20190;-82
2022/04/17 00:25:29;;;;;;;4.38;4.05;;;;;;;8.94;40.56;100512.53;5002444;28;20223;-82
2022/04/17 00:27:56;;;;;;;3.78;3.47;;;;;;;8.99;40.59;100512.34;5014783;28;20572;-83
2022/04/17 00:30:23;;;;;;;3.80;3.40;;;;;;;8.78;40.97;100516.72;5014371;28;20215;-82
2022/04/17 00:32:49;;;;;;;4.82;4.25;;;;;;;8.74;41.19;100510.56;5014714;28;20222;-81
2022/04/17 00:35:16;;;;;;;3.83;3.53;;;;;;;8.69;41.37;100493.75;5011956;28;20187;-82
2022/04/17 00:37:43;;;;;;;5.38;3.30;;;;;;;8.76;41.21;100497.09;5014572;28;20197;-82
2022/04/17 00:40:11;;;;;;;3.65;3.35;;;;;;;8.84;41.33;100491.44;5014337;28;20205;-81
2022/04/17 00:42:40;;;;;;;5.28;3.75;;;;;;;8.78;41.38;100500.59;5014583;28;20269;-82
2022/04/17 00:45:08;;;;;;;3.95;3.47;;;;;;;8.84;41.42;100504.84;5013917;28;20248;-82
2022/04/17 00:47:35;;;;;;;4.28;3.88;;;;;;;8.71;41.93;100509.81;5014361;28;20562;-83
2022/04/17 00:50:02;;;;;;;3.40;3.10;;;;;;;8.70;42.06;100508.03;5014048;28;20476;-82
2022/04/17 00:52:29;;;;;;;3.83;3.53;;;;;;;8.65;42.20;100507.34;5014371;28;20196;-82
2022/04/17 00:54:56;;;;;;;10.40;3.78;;;;;;;8.66;42.12;100504.59;5013774;28;20197;-82
2022/04/17 00:57:24;;;;;;;4.22;3.35;;;;;;;8.67;42.41;100497.44;5013873;28;20193;-81
2022/04/17 00:59:52;;;;;;;4.20;3.22;;;;;;;8.61;42.57;100500.31;5013966;28;20188;-82
2022/04/17 01:02:18;;;;;;;5.57;3.53;;;;;;;8.60;42.70;100504.81;5013515;28;20209;-81
2022/04/17 01:04:45;;;;;;;5.25;3.25;;;;;;;8.44;42.98;100496.44;5011813;28;20570;-82
2022/04/17 01:07:14;;;;;;;4.45;3.50;;;;;;;8.23;43.80;100500.72;5013971;28;20217;-81
2022/04/17 01:09:42;;;;;;;4.45;3.75;;;;;;;8.17;43.89;100489.31;5011844;28;20592;-82
2022/04/17 01:12:10;;;;;;;4.63;3.83;;;;;;;8.34;43.77;100493.16;4993958;28;20258;-81
2022/04/17 01:14:39;;;;;;;4.07;3.40;;;;;;;8.18;43.96;100483.88;4995022;28;20601;-81
2022/04/17 01:17:06;;;;;;;4.13;3.70;;;;;;;8.26;44.08;100480.94;5013360;28;20196;-82
2022/04/17 01:19:35;;;;;;;4.45;3.10;;;;;;;8.33;43.97;100480.66;5013862;28;20191;-82
2022/04/17 01:22:04;;;;;;;3.72;3.40;;;;;;;8.26;44.18;100478.25;5013670;28;20555;-82
2022/04/17 01:27:15;;;;;;;3.88;3.45;;;;;;;8.27;44.50;100475.50;4993785;28;20200;-81
2022/04/17 01:29:42;;;;;;;3.70;3.40;;;;;;;8.19;44.71;100476.72;4994086;28;20191;-81
2022/04/17 01:32:11;;;;;;;4.80;3.30;;;;;;;8.05;45.21;100470.03;4993894;28;20242;-82
2022/04/17 01:34:38;;;;;;;4.28;3.80;;;;;;;8.11;45.22;100476.97;4993908;28;20193;-81
2022/04/17 01:37:07;;;;;;;4.18;3.25;;;;;;;8.07;45.26;100484.25;4993853;28;20208;-82
2022/04/17 01:39:33;;;;;;;4.25;3.88;;;;;;;8.05;45.32;100479.84;4994900;28;20282;-82
2022/04/17 01:42:01;;;;;;;3.42;3.13;;;;;;;8.08;45.21;100477.94;5009747;28;20669;-81
2022/04/17 01:44:29;;;;;;;5.05;2.83;;;;;;;8.09;45.41;100482.38;5013382;28;20215;-82
2022/04/17 01:46:56;;;;;;;5.10;3.42;;;;;;;7.86;45.89;100472.41;5012209;28;20577;-81
2022/04/17 01:49:24;;;;;;;5.32;3.28;;;;;;;7.91;45.97;100470.47;5012909;28;20199;-81
2022/04/17 01:51:52;;;;;;;3.80;3.20;;;;;;;7.91;46.03;100467.81;5013131;28;20592;-82
2022/04/17 01:54:20;;;;;;;5.20;3.58;;;;;;;7.78;46.33;100458.41;5012721;28;20207;-81
2022/04/17 01:56:48;;;;;;;3.78;3.10;;;;;;;7.77;46.72;100462.00;5009829;28;20323;-82
2022/04/17 01:59:15;;;;;;;3.85;3.55;;;;;;;7.81;46.51;100452.06;4993628;28;20254;-81
2022/04/17 02:01:42;;;;;;;4.05;3.65;;;;;;;7.81;46.71;100460.09;5011591;28;20203;-81
2022/04/17 02:04:10;;;;;;;6.32;3.83;;;;;;;7.80;46.85;100455.66;5013074;28;20840;-81
2022/04/17 02:06:39;;;;;;;3.33;3.03;;;;;;;7.88;46.68;100454.47;4995007;28;21046;-81
2022/04/17 02:09:07;;;;;;;3.20;2.95;;;;;;;7.63;47.41;100454.41;4993151;28;20616;-81
2022/04/17 02:11:36;;;;;;;3.75;3.45;;;;;;;7.51;47.95;100447.66;4993157;28;20238;-82
2022/04/17 02:14:03;;;;;;;3.25;2.95;;;;;;;7.55;48.12;100448.41;4992743;28;20186;-82
2022/04/17 02:16:30;;;;;;;3.60;3.30;;;;;;;7.49;48.24;100444.13;4995485;28;20195;-82
2022/04/17 02:18:57;;;;;;;3.60;3.30;;;;;;;7.59;48.02;100447.38;5012707;28;20190;-81
2022/04/17 02:21:24;;;;;;;4.18;3.28;;;;;;;7.49;48.42;100448.63;5012619;28;20601;-81
2022/04/17 02:23:50;;;;;;;6.72;3.90;;;;;;;7.49;48.43;100449.50;5012411;28;20534;-81
2022/04/17 02:26:17;;;;;;;3.60;3.30;;;;;;;7.46;48.65;100441.56;5012501;28;20206;-82
2022/04/17 02:28:46;;;;;;;3.75;3.45;;;;;;;7.47;48.75;100448.66;5012565;28;20565;-81
2022/04/17 02:31:13;;;;;;;6.05;3.67;;;;;;;7.55;48.77;100453.75;5008751;28;20191;-81
2022/04/17 02:33:40;;;;;;;3.35;3.15;;;;;;;7.47;48.88;100442.44;4992851;28;20540;-81
2022/04/17 02:36:07;;;;;;;4.10;3.40;;;;;;;7.51;48.89;100449.47;4992379;28;20290;-81
2022/04/17 02:38:34;;;;;;;5.88;3.40;;;;;;;7.48;49.16;100449.53;5005542;28;20205;-81
2022/04/17 02:41:01;;;;;;;3.50;3.20;;;;;;;7.43;49.45;100443.44;5011909;28;20193;-81
2022/04/17 02:43:28;;;;;;;4.18;3.45;;;;;;;7.37;49.67;100449.91;5012254;28;20272;-81
2022/04/17 02:45:56;;;;;;;3.70;3.40;;;;;;;7.51;49.53;100446.78;5010046;28;20653;-82
2022/04/17 02:48:23;;;;;;;3.55;3.25;;;;;;;7.50;49.60;100442.31;5010471;28;20190;-81
2022/04/17 02:50:50;;;;;;;5.05;2.80;;;;;;;7.51;49.54;100441.41;5000495;28;20196;-81
2022/04/17 02:53:17;;;;;;;5.45;3.80;;;;;;;7.47;49.75;100439.75;4992641;28;20247;-81
2022/04/17 02:55:43;;;;;;;5.22;3.63;;;;;;;7.18;50.56;100436.19;4992335;28;20593;-81
2022/04/17 02:58:11;;;;;;;3.30;2.92;;;;;;;7.20;50.87;100444.19;4992134;28;20504;-81
2022/04/17 03:05:36;;;;;;;3.35;3.05;;;;;;;7.25;50.85;100443.09;5005774;28;20195;-81
2022/04/17 03:06:11;;;;;;;3.50;3.20;;;;;;;6.91;52.62;100443.25;5002806;28;20210;-81
2022/04/17 03:08:39;;;;;;;6.43;3.13;;;;;;;6.85;53.39;100444.31;5005698;28;20195;-80
2022/04/17 03:11:06;;;;;;;6.15;3.75;;;;;;;6.95;53.74;100449.41;5012093;28;20211;-81
2022/04/17 03:13:33;;;;;;;4.72;4.25;;;;;;;6.68;55.29;100433.22;5011702;28;20278;-80
2022/04/17 03:16:00;;;;;;;3.80;3.40;;;;;;;6.55;56.14;100437.16;5011982;28;20214;-81
2022/04/17 03:18:28;;;;;;;3.95;3.35;;;;;;;6.66;55.98;100429.72;5011900;28;20660;-82
2022/04/17 03:20:54;;;;;;;4.30;3.90;;;;;;;6.78;55.85;100421.31;5011897;28;20288;-82
2022/04/17 03:23:21;;;;;;;3.83;3.47;;;;;;;6.91;54.65;100418.28;5000289;28;20198;-81
2022/04/17 03:25:47;;;;;;;4.40;3.40;;;;;;;7.01;54.08;100414.38;5008654;28;20224;-81
2022/04/17 03:28:14;;;;;;;6.15;3.58;;;;;;;6.98;53.91;100412.69;5011516;28;20191;-81
2022/04/17 03:30:40;;;;;;;7.85;3.78;;;;;;;6.84;54.29;100405.06;5011868;28;20536;-82
2022/04/17 03:33:07;;;;;;;4.10;3.60;;;;;;;6.92;54.09;100401.28;5011403;28;20293;-82
2022/04/17 03:35:35;;;;;;;4.53;3.58;;;;;;;7.00;53.83;100400.13;5011574;28;20179;-81
2022/04/17 03:38:02;;;;;;;5.13;4.30;;;;;;;6.92;54.42;100401.28;5011361;28;20187;-81
2022/04/17 03:40:28;;;;;;;5.28;3.30;;;;;;;6.78;54.97;100394.53;4994984;28;20199;-81
2022/04/17 03:42:57;;;;;;;7.03;3.25;;;;;;;6.73;55.11;100400.97;4992212;28;20192;-81
2022/04/17 03:45:24;;;;;;;5.80;4.20;;;;;;;6.67;55.56;100394.88;4993015;28;20195;-81
2022/04/17 03:47:51;;;;;;;3.67;3.30;;;;;;;6.73;55.46;100390.25;4992145;28;20211;-81
2022/04/17 03:50:18;;;;;;;6.72;5.13;;;;;;;6.73;55.55;100391.13;4992045;28;20289;-81
2022/04/17 03:52:48;;;;;;;4.95;3.13;;;;;;;6.69;56.08;100397.47;4993421;28;20192;-81
2022/04/17 03:55:15;;;;;;;4.40;3.60;;;;;;;6.64;56.37;100399.44;4992144;28;20200;-81
2022/04/17 03:57:42;;;;;;;4.18;3.72;;;;;;;6.72;55.86;100400.09;5002493;28;20560;-81
2022/04/17 04:00:11;;;;;;;4.72;3.88;;;;;;;6.56;56.51;100405.00;5011574;28;20588;-81
2022/04/17 04:02:38;;;;;;;3.25;2.97;;;;;;;6.68;56.42;100406.44;5011587;28;20557;-81
2022/04/17 04:05:07;;;;;;;6.45;4.50;;;;;;;6.70;56.49;100406.41;5011466;28;20644;-82
2022/04/17 04:07:34;;;;;;;4.63;3.38;;;;;;;6.32;57.97;100406.56;5011139;28;20211;-81
2022/04/17 04:10:02;;;;;;;4.18;3.60;;;;;;;6.25;57.97;100394.28;4993502;28;20199;-82
2022/04/17 04:12:29;;;;;;;3.55;3.25;;;;;;;6.24;58.56;100393.44;4995480;28;20618;-81
2022/04/17 04:14:55;;;;;;;3.67;3.38;;;;;;;6.21;58.48;100388.13;4995475;28;20188;-81
2022/04/17 04:17:22;;;;;;;3.58;3.22;;;;;;;6.13;59.29;100386.59;4995402;28;20290;-81
2022/04/17 04:19:49;;;;;;;3.50;3.20;;;;;;;6.20;58.96;100388.22;4995255;28;20196;-81
2022/04/17 04:22:15;;;;;;;3.45;3.15;;;;;;;6.34;58.51;100386.00;4995244;28;20664;-81
2022/04/17 04:24:42;;;;;;;3.65;3.35;;;;;;;6.14;59.41;100385.69;5013040;28;20640;-81
2022/04/17 04:29:54;;;;;;;3.72;3.33;;;;;;;6.12;59.76;100387.53;5012031;28;20201;-80
2022/04/17 04:32:21;;;;;;;3.78;3.15;;;;;;;6.25;59.36;100380.94;5014674;28;20516;-81
2022/04/17 04:34:48;;;;;;;4.18;3.22;;;;;;;6.37;58.89;100383.25;5004551;28;20203;-81
2022/04/17 04:37:14;;;;;;;3.58;3.28;;;;;;;6.30;58.99;100381.66;5007148;28;20643;-81
2022/04/17 04:39:41;;;;;;;4.32;3.10;;;;;;;6.47;58.36;100387.41;4994797;28;20184;-80
2022/04/17 04:42:08;;;;;;;3.38;3.08;;;;;;;6.37;58.98;100387.72;5004086;28;20195;-81
2022/04/17 04:44:36;;;;;;;4.93;3.80;;;;;;;6.42;58.93;100385.78;5014349;28;20187;-80
2022/04/17 04:47:02;;;;;;;4.47;3.20;;;;;;;6.49;58.77;100384.72;5014256;28;20206;-81
2022/04/17 04:49:31;;;;;;;5.20;3.57;;;;;;;6.44;58.92;100383.94;5013284;28;20198;-80
2022/04/17 04:51:58;;;;;;;3.55;3.25;;;;;;;6.48;59.18;100389.16;5014370;28;20191;-81
2022/04/17 04:54:25;;;;;;;4.90;3.50;;;;;;;6.56;58.88;100393.44;5004445;28;20544;-81
2022/04/17 04:56:51;;;;;;;5.20;3.45;;;;;;;6.54;59.02;100384.59;4994441;28;20235;-81
2022/04/17 04:59:18;;;;;;;3.75;2.95;;;;;;;6.38;59.81;100393.03;4994902;28;20517;-81
2022/04/17 05:01:46;;;;;;;4.30;3.35;;;;;;;6.45;59.55;100399.97;4994789;28;20187;-81
2022/04/17 05:04:12;;;;;;;6.88;3.55;;;;;;;6.34;60.00;100394.03;4994705;28;20600;-81
2022/04/17 05:06:39;;;;;;;4.05;3.65;;;;;;;6.37;60.04;100391.25;4994648;28;20668;-81
2022/04/17 05:09:05;;;;;;;4.10;3.70;;;;;;;6.39;59.84;100397.44;4994412;28;20184;-81
2022/04/17 05:11:32;;;;;;;4.57;3.60;;;;;;;6.35;60.16;100384.22;5007274;28;20194;-82
2022/04/17 05:13:59;;;;;;;4.50;3.60;;;;;;;6.37;60.09;100399.28;5014017;28;20688;-81
2022/04/17 05:16:25;;;;;;;4.97;3.17;;;;;;;6.32;60.57;100397.69;5014110;28;20205;-81
2022/04/17 05:19:18;;;;;;;5.07;3.40;;;;;;;6.22;61.12;100391.72;5004658;28;20555;-81
2022/04/17 05:21:40;;;;;;;4.57;3.80;;;;;;;6.17;61.53;100386.50;4993793;28;20658;-80
2022/04/17 05:24:07;;;;;;;4.55;3.72;;;;;;;5.91;62.94;100394.31;5004968;28;20599;-81
2022/04/17 05:26:34;;;;;;;4.05;3.20;;;;;;;5.97;62.89;100394.16;5006680;28;20679;-81
2022/04/17 05:29:02;;;;;;;3.78;3.47;;;;;;;5.99;62.83;100392.31;4994300;28;20184;-81
2022/04/17 05:31:29;;;;;;;7.53;3.83;;;;;;;6.03;62.41;100402.88;4994307;28;20583;-81
2022/04/17 05:33:57;;;;;;;4.10;3.70;;;;;;;5.98;63.06;100411.97;4997731;28;20201;-81
2022/04/17 05:36:24;;;;;;;4.05;3.60;;;;;;;6.01;62.82;100414.53;5003343;28;20187;-80
2022/04/17 05:38:53;;;;;;;5.72;3.50;;;;;;;6.13;62.48;100421.34;5013768;28;20204;-81
2022/04/17 05:41:20;;;;;;;4.10;3.70;;;;;;;6.23;62.00;100407.69;4997197;28;20282;-81
2022/04/17 05:43:48;;;;;;;4.82;3.88;;;;;;;6.07;62.79;100418.88;4993672;28;20211;-81
2022/04/17 05:46:14;;;;;;;4.93;3.95;;;;;;;6.09;62.66;100411.69;4993759;28;20273;-81
2022/04/17 05:48:41;;;;;;;13.88;7.05;;;;;;;6.16;62.76;100415.94;4993853;28;20194;-80
2022/04/17 05:51:09;;;;;;;6.55;4.13;;;;;;;6.29;61.94;100416.47;5012498;28;20317;-82
2022/04/17 05:53:36;;;;;;;6.95;3.65;;;;;;;6.40;61.12;100419.72;5013231;28;20617;-81
2022/04/17 05:56:02;;;;;;;5.50;3.60;;;;;;;6.42;61.19;100415.22;5013028;28;20230;-81
2022/04/17 05:58:29;;;;;;;5.38;3.80;;;;;;;6.70;59.59;100418.00;5012923;28;20187;-81
2022/04/17 06:00:56;;;;;;;3.72;3.10;;;;;;;6.91;58.53;100410.25;5010501;28;20221;-78
2022/04/17 06:03:22;;;;;;;3.88;3.47;;;;;;;6.97;57.90;100410.06;5021981;28;20194;-79
2022/04/17 06:05:49;;;;;;;5.35;3.78;;;;;;;6.64;58.99;100408.31;4997532;28;20205;-80
2022/04/17 06:08:17;;;;;;;5.32;4.25;;;;;;;6.73;59.34;100401.84;4997543;28;20720;-79
2022/04/17 06:10:43;;;;;;;4.82;3.80;;;;;;;6.86;58.42;100402.34;4996128;28;20199;-79
2022/04/17 06:13:10;;;;;;;4.85;3.88;;;;;;;6.81;58.37;100410.53;5002585;28;20202;-80
2022/04/17 06:15:38;;;;;;;4.20;3.80;;;;;;;6.86;58.18;100403.22;5012429;28;20494;-80
2022/04/17 06:18:06;;;;;;;5.32;3.83;;;;;;;6.98;57.71;100404.66;5012597;28;20186;-82
2022/04/17 06:20:32;;;;;;;3.63;3.33;;;;;;;7.01;57.30;100406.34;5012364;28;20208;-77
2022/04/17 06:22:59;;;;;;;6.95;3.60;;;;;;;7.29;56.17;100401.03;5012431;28;20187;-79
2022/04/17 06:25:27;;;;;;;3.97;3.67;;;;;;;7.32;55.63;100396.44;5012538;28;20186;-79
2022/04/17 06:27:55;;;;;;;4.20;3.40;;;;;;;7.37;55.18;100401.66;5010377;28;20214;-78
2022/04/17 06:30:22;;;;;;;3.80;3.42;;;;;;;7.51;55.12;100409.25;4995104;28;20704;-77
2022/04/17 06:32:50;;;;;;;5.30;3.63;;;;;;;7.65;54.32;100398.06;4991926;28;20206;-80
2022/04/17 06:35:17;;;;;;;4.65;3.75;;;;;;;7.82;53.12;100384.97;5008271;28;20191;-82
2022/04/17 06:37:48;;;;;;;4.32;3.92;;;;;;;7.90;52.66;100385.59;5012307;28;20195;-81
2022/04/17 06:40:18;;;;;;;4.90;4.00;;;;;;;7.98;52.77;100385.31;5012472;28;20190;-80
2022/04/17 06:42:48;;;;;;;4.50;3.90;;;;;;;8.11;52.23;100386.63;5006825;28;20186;-86
2022/04/17 06:45:15;;;;;;;5.80;3.72;;;;;;;8.30;51.17;100386.00;5012700;28;20294;-81
2022/04/17 06:47:42;;;;;;;5.57;4.32;;;;;;;8.44;50.81;100374.78;5012421;28;20677;-81
2022/04/17 06:50:09;;;;;;;4.10;3.55;;;;;;;8.45;50.32;100374.72;5010674;28;20207;-82
2022/04/17 06:52:36;;;;;;;4.47;4.07;;;;;;;8.65;50.03;100373.97;5012364;28;20203;-82
2022/04/17 06:55:03;;;;;;;4.90;3.25;;;;;;;8.81;49.16;100376.94;5012226;28;20256;-82
2022/04/17 06:57:30;;;;;;;4.05;3.50;;;;;;;8.61;49.37;100374.13;4998213;28;20652;-82
2022/04/17 06:59:58;;;;;;;4.50;4.10;;;;;;;8.71;49.47;100375.56;5005406;28;20203;-82
2022/04/17 07:02:25;;;;;;;4.60;3.83;;;;;;;8.62;49.17;100382.16;4992653;28;20196;-82
2022/04/17 07:04:52;;;;;;;3.95;3.65;;;;;;;8.94;48.33;100375.53;4992447;28;20192;-82
2022/04/17 07:07:18;;;;;;;4.18;3.38;;;;;;;9.16;48.21;100375.56;4992346;28;20224;-82
2022/04/17 07:09:45;;;;;;;4.53;3.67;;;;;;;9.27;47.61;100369.78;4994318;28;20285;-82
2022/04/17 07:12:12;;;;;;;5.85;3.83;;;;;;;9.42;47.15;100370.06;4993260;28;20197;-80
2022/04/17 07:14:38;;;;;;;4.80;4.28;;;;;;;9.56;46.78;100363.16;4992343;28;20210;-80
2022/04/17 07:17:06;;;;;;;3.97;3.58;;;;;;;9.48;46.64;100373.38;5010754;28;20671;-81
2022/04/17 07:19:33;;;;;;;3.80;3.50;;;;;;;9.57;46.49;100366.75;5012044;28;20199;-81
2022/04/17 07:22:00;;;;;;;4.85;3.67;;;;;;;9.87;45.53;100369.94;5012132;28;20225;-81
2022/04/17 07:24:26;;;;;;;4.95;3.83;;;;;;;10.14;44.69;100365.19;5011741;28;20280;-81
2022/04/17 07:26:53;;;;;;;3.70;3.30;;;;;;;10.21;44.64;100358.59;5011737;28;20206;-81
2022/04/17 07:29:22;;;;;;;4.53;3.65;;;;;;;10.05;45.11;100364.72;5011967;28;20264;-81
2022/04/17 07:31:49;;;;;;;3.83;3.40;;;;;;;10.16;44.94;100366.00;5011499;28;20191;-81
2022/04/17 07:34:18;;;;;;;3.90;3.60;;;;;;;10.28;44.72;100361.88;5011957;28;20190;-81
2022/04/17 07:36:44;;;;;;;4.10;3.70;;;;;;;10.37;44.29;100363.31;5011673;28;20196;-81
2022/04/17 07:39:11;;;;;;;5.45;3.60;;;;;;;10.51;44.23;100352.78;5011900;28;20212;-82
2022/04/17 07:41:39;;;;;;;4.50;2.95;;;;;;;10.75;43.80;100364.25;5011620;28;20206;-81
2022/04/17 07:44:06;;;;;;;5.85;3.78;;;;;;;10.80;42.90;100361.34;5011737;28;20186;-81
2022/04/17 07:46:33;;;;;;;6.10;3.53;;;;;;;10.78;42.56;100364.09;5014378;28;20203;-81
2022/04/17 07:48:59;;;;;;;3.90;3.50;;;;;;;10.62;43.09;100363.94;5015440;28;20202;-81
2022/04/17 07:51:28;;;;;;;4.43;3.30;;;;;;;10.74;42.95;100361.63;5015188;28;20197;-81
2022/04/17 07:53:55;;;;;;;5.10;3.60;;;;;;;10.88;42.71;100355.56;5015402;28;20676;-80
2022/04/17 07:56:22;;;;;;;4.47;3.70;;;;;;;11.13;42.25;100358.00;5015021;28;20235;-81
2022/04/17 07:58:48;;;;;;;5.03;3.53;;;;;;;11.04;42.29;100354.78;5015146;28;20198;-82
2022/04/17 08:01:16;;;;;;;3.17;2.88;;;;;;;11.37;41.74;100348.69;5001365;28;20228;-81
2022/04/17 08:03:49;;;;;;;5.22;3.35;;;;;;;11.64;41.05;100345.56;4995361;28;20219;-81
2022/04/17 08:06:17;;;;;;;4.38;3.38;;;;;;;11.69;40.97;100347.09;5000894;28;20586;-80
2022/04/17 08:08:46;;;;;;;3.92;3.20;;;;;;;11.61;40.95;100343.03;5014689;28;20223;-81
2022/04/17 08:11:13;;;;;;;4.25;3.05;;;;;;;11.58;40.77;100343.19;5015193;28;20191;-81
2022/04/17 08:13:42;;;;;;;3.17;2.97;;;;;;;11.82;40.20;100347.31;5014893;28;20191;-81
2022/04/17 08:16:09;;;;;;;3.35;2.85;;;;;;;11.96;40.01;100343.06;5015159;28;20215;-81
2022/04/17 08:18:37;;;;;;;3.25;2.95;;;;;;;11.91;40.15;100339.75;5014896;28;20191;-80
2022/04/17 08:21:04;;;;;;;3.00;2.80;;;;;;;12.10;37.57;100336.00;5014984;28;20194;-81
2022/04/17 08:23:31;;;;;;;3.10;2.80;;;;;;;12.33;36.60;100341.16;5014542;28;20217;-81
2022/04/17 08:25:59;;;;;;;4.00;3.20;;;;;;;12.45;37.38;100343.19;5014812;28;20210;-81
2022/04/17 08:28:26;;;;;;;3.17;2.65;;;;;;;12.62;37.54;100336.88;5014691;28;20206;-81
2022/04/17 08:30:52;;;;;;;3.33;3.03;;;;;;;12.79;37.32;100327.81;5014527;28;20216;-81
2022/04/17 08:33:19;;;;;;;4.32;3.45;;;;;;;12.84;36.28;100325.72;5014823;28;20183;-81
2022/04/17 08:35:46;;;;;;;3.13;2.83;;;;;;;12.96;35.99;100325.06;5014760;28;20203;-82
2022/04/17 08:38:14;;;;;;;4.18;2.90;;;;;;;13.33;34.69;100314.84;5014503;28;20183;-81
2022/04/17 08:40:41;;;;;;;3.38;2.72;;;;;;;13.42;34.33;100314.31;5014672;28;20673;-81
2022/04/17 08:43:09;;;;;;;4.82;2.78;;;;;;;13.13;33.51;100318.66;5014621;28;20188;-81
2022/04/17 08:45:35;;;;;;;2.80;2.50;;;;;;;13.11;33.28;100307.97;5014474;28;20928;-81
2022/04/17 08:48:03;;;;;;;2.58;2.20;;;;;;;13.15;33.68;100311.34;5014343;28;20217;-81
2022/04/17 08:50:31;;;;;;;2.88;2.40;;;;;;;13.43;32.93;100307.97;5014667;28;20659;-81
2022/04/17 08:52:59;;;;;;;3.55;3.00;;;;;;;13.60;33.23;100298.81;5014056;28;20187;-81
2022/04/17 08:55:26;;;;;;;3.00;2.70;;;;;;;13.63;33.06;100290.50;5013954;28;20231;-81
2022/04/17 08:57:53;;;;;;;3.60;2.35;;;;;;;13.75;33.01;100278.09;5014068;28;20614;-81
2022/04/17 09:00:21;;;;;;;4.00;3.22;;;;;;;13.81;32.78;100275.00;5007383;28;20197;-82
2022/04/17 09:02:49;;;;;;;5.22;3.00;;;;;;;13.89;32.48;100266.44;5002151;28;20284;-81
2022/04/17 09:05:18;;;;;;;3.45;2.30;;;;;;;13.98;31.99;100264.03;5014030;28;20184;-81
2022/04/17 09:07:46;;;;;;;3.00;2.70;;;;;;;14.19;32.03;100264.50;5014072;28;20214;-81
2022/04/17 09:10:25;;;;;;;5.43;2.83;;;;;;;14.17;32.13;100260.16;5014054;28;20220;-81
2022/04/17 09:12:54;;;;;;;3.13;2.83;;;;;;;14.14;32.42;100254.94;5014101;28;20196;-82
2022/04/17 09:15:25;;;;;;;3.70;2.47;;;;;;;14.32;31.66;100256.50;5013781;28;20231;-82
2022/04/17 09:17:52;;;;;;;2.55;2.35;;;;;;;14.36;31.59;100258.06;5013845;28;20189;-81
2022/04/17 09:20:20;;;;;;;2.70;2.20;;;;;;;14.59;30.68;100253.03;5013524;28;20276;-81
2022/04/17 09:22:47;;;;;;;4.97;2.72;;;;;;;14.50;31.24;100259.03;5013592;28;20188;-81
2022/04/17 09:25:15;;;;;;;3.78;2.70;;;;;;;14.51;30.89;100261.59;5013810;28;20186;-81
2022/04/17 09:27:55;;;;;;;4.70;2.40;;;;;;;14.64;30.86;100253.59;5013578;28;20686;-81
2022/04/17 09:30:28;;;;;;;3.10;2.17;;;;;;;14.65;30.19;100249.03;5013007;28;20202;-80
2022/04/17 09:32:55;;;;;;;3.58;2.40;;;;;;;14.67;30.01;100247.97;5013483;28;20653;-81
2022/04/17 09:35:23;;;;;;;11.30;2.95;;;;;;;14.71;30.05;100244.09;5013272;28;20707;-81
2022/04/17 09:37:50;;;;;;;2.83;2.55;;;;;;;15.09;29.38;100238.00;5013375;28;20189;-81
2022/04/17 09:40:20;;;;;;;4.53;3.08;;;;;;;15.11;29.37;100236.06;5013286;28;20653;-81
2022/04/17 09:42:48;;;;;;;3.30;2.80;;;;;;;15.23;28.94;100243.34;5013444;28;20185;-81
2022/04/17 09:45:15;;;;;;;3.33;2.20;;;;;;;15.27;28.76;100240.47;5013387;28;20194;-80
2022/04/17 09:47:56;;;;;;;5.55;1.88;;;;;;;15.17;28.90;100235.66;5013106;28;20251;-81
2022/04/17 09:50:31;;;;;;;2.05;1.65;;;;;;;15.31;28.67;100234.72;5013240;28;20209;-81
2022/04/17 09:52:58;;;;;;;2.65;1.85;;;;;;;15.15;28.33;100226.75;5012989;28;20192;-81
2022/04/17 09:55:28;;;;;;;3.42;2.50;;;;;;;15.34;28.40;100230.91;5013059;28;20233;-81
2022/04/17 09:57:58;;;;;;;2.92;2.50;;;;;;;15.26;28.50;100220.56;5012709;28;20195;-81
2022/04/17 10:00:26;;;;;;;2.47;1.98;;;;;;;15.39;28.41;100224.19;5005760;28;20623;-81
2022/04/17 10:02:54;;;;;;;2.88;2.15;;;;;;;15.55;28.40;100217.72;5003838;28;20216;-81
2022/04/17 10:05:22;;;;;;;2.05;1.85;;;;;;;15.32;27.78;100203.88;4995151;28;20540;-81
2022/04/17 10:07:50;;;;;;;2.50;1.90;;;;;;;15.51;27.89;100211.66;4992491;28;20214;-81
2022/04/17 10:10:18;;;;;;;1.70;1.60;;;;;;;15.70;27.48;100203.09;5010269;28;20290;-81
2022/04/17 10:12:46;;;;;;;3.40;1.92;;;;;;;15.91;27.37;100203.44;4999701;28;20989;-81
2022/04/17 10:15:14;;;;;;;2.60;2.13;;;;;;;15.78;27.41;100197.13;4996544;28;20199;-81
2022/04/17 10:17:43;;;;;;;3.05;2.30;;;;;;;15.84;27.56;100200.28;4998195;28;20227;-82
2022/04/17 10:20:13;;;;;;;2.20;2.00;;;;;;;15.93;27.81;100192.50;5002909;28;20701;-82
2022/04/17 10:22:43;;;;;;;5.68;2.03;;;;;;;16.20;27.88;100197.78;4997904;28;20191;-81
2022/04/17 10:25:10;;;;;;;4.65;3.45;;;;;;;16.19;28.05;100193.31;4999652;28;20197;-79
2022/04/17 10:27:42;;;;;;;3.05;2.47;;;;;;;16.45;27.49;100189.59;5012455;28;20210;-79
2022/04/17 10:30:12;;;;;;;3.20;2.45;;;;;;;16.50;27.81;100183.81;5010215;28;20198;-81
2022/04/17 10:33:18;;;;;;;3.08;2.10;;;;;;;16.54;27.67;100179.03;5003306;28;20191;-81
2022/04/17 10:36:07;;;;;;;3.28;1.80;;;;;;;16.60;26.99;100165.84;5008218;28;20237;-80
2022/04/17 10:38:46;;;;;;;2.50;2.25;;;;;;;16.56;26.74;100167.06;5012546;28;20525;-80
2022/04/17 10:41:14;;;;;;;3.40;1.90;;;;;;;16.56;26.66;100167.06;4995915;28;20199;-79
2022/04/17 10:43:57;;;;;;;2.38;2.17;;;;;;;16.54;26.72;100165.44;4992995;28;20551;-78
2022/04/17 10:46:25;;;;;;;2.25;1.92;;;;;;;16.49;27.29;100173.06;4993966;28;20193;-81
2022/04/17 10:48:54;;;;;;;4.22;2.30;;;;;;;16.77;27.44;100166.44;4996897;28;20210;-82
2022/04/17 10:51:24;;;;;;;3.35;2.38;;;;;;;16.67;27.23;100158.97;4996760;28;20264;-81
2022/04/17 10:53:58;;;;;;;2.65;1.98;;;;;;;16.73;26.92;100159.47;5004423;28;20191;-83
2022/04/17 10:56:24;;;;;;;4.20;2.05;;;;;;;16.84;27.25;100148.69;5011940;28;20677;-80
2022/04/17 10:58:53;;;;;;;3.13;2.50;;;;;;;16.88;27.38;100140.19;4992982;28;20196;-82
2022/04/17 11:02:06;;;;;;;3.10;2.10;;;;;;;16.72;27.38;100145.03;4992431;28;20250;-81
2022/04/17 11:04:40;;;;;;;2.05;1.85;;;;;;;16.60;27.11;100137.81;5011970;28;20981;-81
2022/04/17 11:07:31;;;;;;;2.20;2.00;;;;;;;16.44;27.24;100133.50;5012061;28;20209;-82
2022/04/17 11:10:23;;;;;;;1.95;1.50;;;;;;;16.74;26.97;100129.47;5012117;28;20206;-81
2022/04/17 11:12:55;;;;;;;1.80;1.50;;;;;;;16.86;26.87;100120.41;5003563;28;20187;-79
2022/04/17 11:15:32;;;;;;;2.47;1.52;;;;;;;17.03;26.09;100124.56;5009250;28;20205;-79
2022/04/17 11:18:01;;;;;;;2.08;1.55;;;;;;;17.23;26.07;100111.25;5005644;28;20633;-81
2022/04/17 11:20:29;;;;;;;2.40;1.50;;;;;;;17.08;26.65;100122.34;5015208;28;20629;-78
2022/04/17 11:22:57;;;;;;;2.10;1.90;;;;;;;17.05;26.50;100116.31;5015673;28;20199;-80
2022/04/17 11:25:28;;;;;;;2.10;1.90;;;;;;;16.97;27.01;100121.44;5015634;28;20186;-80
2022/04/17 11:27:54;;;;;;;2.15;1.67;;;;;;;17.05;26.90;100110.84;5013942;28;20254;-81
2022/04/17 11:30:33;;;;;;;3.30;2.20;;;;;;;16.93;27.01;100106.34;5015496;28;20187;-80
2022/04/17 11:33:02;;;;;;;2.78;1.85;;;;;;;17.16;26.71;100107.28;5015432;28;20241;-80
2022/04/17 11:35:29;;;;;;;1.60;1.30;;;;;;;17.12;26.78;100113.94;5015751;28;20183;-80
2022/04/17 11:38:01;;;;;;;4.40;2.00;;;;;;;17.21;26.82;100110.53;4999731;28;20195;-81
2022/04/17 11:40:31;;;;;;;2.90;1.60;;;;;;;17.16;26.45;100094.53;4995624;28;20191;-80
2022/04/17 11:43:04;;;;;;;2.50;2.30;;;;;;;17.22;26.26;100091.34;4996088;28;20561;-81